createdAt,value
2023-04-11T00:02:13.275Z,10.25
2023-04-11T00:04:41.381Z,9.80
2023-04-11T00:07:09.259Z,9.73
2023-04-11T00:09:37.035Z,9.65
2023-04-11T00:12:04.987Z,9.77
2023-04-11T00:14:34.397Z,10.20
2023-04-11T00:17:02.147Z,9.70
2023-04-11T00:19:33.396Z,8.90
2023-04-11T00:22:01.492Z,9.20
2023-04-11T00:24:29.246Z,10.27
2023-04-11T00:26:58.055Z,9.70
2023-04-11T00:29:25.706Z,9.45
2023-04-11T00:31:55.468Z,9.45
2023-04-11T00:34:23.268Z,9.90
2023-04-11T00:36:52.355Z,10.65
2023-04-11T00:39:21.229Z,10.05
2023-04-11T00:41:48.853Z,10.63
2023-04-11T00:44:16.721Z,10.32
2023-04-11T00:46:46.119Z,10.55
2023-04-11T00:49:14.151Z,9.88
2023-04-11T00:51:41.735Z,9.98
2023-04-11T00:54:12.144Z,10.30
2023-04-11T00:56:39.867Z,10.15
2023-04-11T00:59:07.520Z,9.80
2023-04-11T01:01:36.396Z,10.23
2023-04-11T01:04:04.676Z,9.85
2023-04-11T01:06:33.647Z,10.50
2023-04-11T01:09:01.321Z,10.15
2023-04-11T01:11:30.664Z,9.90
2023-04-11T01:13:58.274Z,9.90
2023-04-11T01:16:25.971Z,10.57
2023-04-11T01:18:53.912Z,11.73
2023-04-11T01:21:22.319Z,13.88
2023-04-11T01:23:52.798Z,14.65
2023-04-11T01:26:20.719Z,13.77
2023-04-11T01:28:48.330Z,11.52
2023-04-11T01:31:16.076Z,12.43
2023-04-11T01:33:43.828Z,14.68
2023-04-11T01:36:11.792Z,15.20
2023-04-11T01:38:39.397Z,13.07
2023-04-11T01:41:09.454Z,11.80
2023-04-11T01:43:37.200Z,12.18
2023-04-11T01:46:04.948Z,11.65
2023-04-11T01:48:35.084Z,10.32
2023-04-11T01:51:02.736Z,11.45
2023-04-11T01:53:30.341Z,12.38
2023-04-11T01:55:58.005Z,12.13
2023-04-11T01:58:26.984Z,12.20
2023-04-11T02:00:54.630Z,9.75
2023-04-11T02:03:22.617Z,9.50
2023-04-11T02:05:50.352Z,9.27
2023-04-11T02:08:17.951Z,10.30
2023-04-11T02:10:45.727Z,9.25
2023-04-11T02:13:13.364Z,9.57
2023-04-11T02:15:42.345Z,10.43
2023-04-11T02:18:11.256Z,10.32
2023-04-11T02:20:40.516Z,9.85
2023-04-11T02:23:08.161Z,9.75
2023-04-11T02:25:35.873Z,9.50
2023-04-11T02:28:04.225Z,9.80
2023-04-11T02:30:33.396Z,9.20
2023-04-11T02:33:03.142Z,9.52
2023-04-11T02:35:30.990Z,9.55
2023-04-11T02:37:58.923Z,9.18
2023-04-11T02:40:26.546Z,9.43
2023-04-11T02:42:54.177Z,8.60
2023-04-11T02:45:21.984Z,9.35
2023-04-11T02:47:49.622Z,9.00
2023-04-11T02:50:18.874Z,8.80
2023-04-11T02:52:47.920Z,9.23
2023-04-11T02:55:15.674Z,9.23
2023-04-11T02:57:43.317Z,9.23
2023-04-11T03:00:11.965Z,9.35
2023-04-11T03:02:39.710Z,9.00
2023-04-11T03:05:08.924Z,9.07
2023-04-11T03:07:38.495Z,10.05
2023-04-11T03:10:07.302Z,8.70
2023-04-11T03:12:35.010Z,9.00
2023-04-11T03:15:02.704Z,8.65
2023-04-11T03:17:30.338Z,9.07
2023-04-11T03:19:57.994Z,8.70
2023-04-11T03:22:25.968Z,9.10
2023-04-11T03:24:54.998Z,9.10
2023-04-11T03:27:22.610Z,8.77
2023-04-11T03:29:50.271Z,9.05
2023-04-11T03:32:17.926Z,10.10
2023-04-11T03:34:45.515Z,9.43
2023-04-11T03:37:13.158Z,8.93
2023-04-11T03:39:40.815Z,8.57
2023-04-11T03:42:09.820Z,8.57
2023-04-11T03:44:37.567Z,9.30
2023-04-11T03:47:05.385Z,8.95
2023-04-11T03:49:33.135Z,8.60
2023-04-11T03:52:00.816Z,9.07
2023-04-11T03:54:28.480Z,9.27
2023-04-11T03:56:57.205Z,9.70
2023-04-11T03:59:26.220Z,9.25
2023-04-11T04:01:53.960Z,8.73
2023-04-11T04:04:21.743Z,8.80
2023-04-11T04:06:49.491Z,8.73
2023-04-11T04:09:17.163Z,9.23
2023-04-11T04:11:44.753Z,8.77
2023-04-11T04:14:12.388Z,8.70
2023-04-11T04:16:41.459Z,8.75
2023-04-11T04:19:09.512Z,9.23
2023-04-11T04:21:38.108Z,8.50
2023-04-11T04:24:06.214Z,11.35
2023-04-11T04:26:33.839Z,9.13
2023-04-11T04:29:04.653Z,8.80
2023-04-11T04:31:33.806Z,9.77
2023-04-11T04:34:08.706Z,8.68
2023-04-11T04:36:46.131Z,9.15
2023-04-11T04:39:17.468Z,8.80
2023-04-11T04:41:46.299Z,8.83
2023-04-11T04:44:15.853Z,9.13
2023-04-11T04:46:43.752Z,8.48
2023-04-11T04:49:12.760Z,9.05
2023-04-11T04:51:41.255Z,8.85
2023-04-11T04:54:08.904Z,10.15
2023-04-11T04:56:36.539Z,9.10
2023-04-11T04:59:04.374Z,8.98
2023-04-11T05:01:33.013Z,9.50
2023-04-11T05:04:01.748Z,9.40
2023-04-11T05:06:32.520Z,8.88
2023-04-11T05:09:01.452Z,9.35
2023-04-11T05:11:30.061Z,9.43
2023-04-11T05:13:57.838Z,8.82
2023-04-11T05:16:25.892Z,9.55
2023-04-11T05:18:53.665Z,9.85
2023-04-11T05:21:22.272Z,8.98
2023-04-11T05:23:51.329Z,10.18
2023-04-11T05:26:18.959Z,9.60
2023-04-11T05:28:46.974Z,9.40
2023-04-11T05:31:14.735Z,8.80
2023-04-11T05:33:43.162Z,9.32
2023-04-11T05:36:13.832Z,8.80
2023-04-11T05:38:41.832Z,8.95
2023-04-11T05:41:11.079Z,9.52
2023-04-11T05:43:38.912Z,9.25
2023-04-11T05:46:07.861Z,9.98
2023-04-11T05:48:35.851Z,8.93
2023-04-11T05:51:03.481Z,9.05
2023-04-11T05:53:31.910Z,8.82
2023-04-11T05:55:59.531Z,8.85
2023-04-11T05:58:29.750Z,8.73
2023-04-11T06:00:59.453Z,9.48
2023-04-11T06:03:27.517Z,9.13
2023-04-11T06:05:55.428Z,9.00
2023-04-11T06:08:23.129Z,8.77
2023-04-11T06:10:50.726Z,9.98
2023-04-11T06:13:18.330Z,8.73
2023-04-11T06:15:47.376Z,8.82
2023-04-11T06:18:15.056Z,9.02
2023-04-11T06:20:42.641Z,9.43
2023-04-11T06:23:10.250Z,8.38
2023-04-11T06:25:37.879Z,8.73
2023-04-11T06:28:05.672Z,8.40
2023-04-11T06:30:33.284Z,8.50
2023-04-11T06:33:02.319Z,8.73
2023-04-11T06:35:29.964Z,9.13
2023-04-11T06:37:57.630Z,8.98
2023-04-11T06:40:25.296Z,9.05
2023-04-11T06:42:52.915Z,9.40
2023-04-11T06:45:20.576Z,9.35
2023-04-11T06:47:48.309Z,9.23
2023-04-11T06:50:17.384Z,9.02
2023-04-11T06:52:45.000Z,8.77
2023-04-11T06:55:15.363Z,9.20
2023-04-11T06:57:44.289Z,8.68
2023-04-11T07:00:13.579Z,10.02
2023-04-11T07:02:41.638Z,8.80
2023-04-11T07:05:10.300Z,8.30
2023-04-11T07:07:39.709Z,9.43
2023-04-11T07:10:08.584Z,9.20
2023-04-11T07:12:36.237Z,8.77
2023-04-11T07:15:04.664Z,8.02
2023-04-11T07:17:32.408Z,7.95
2023-04-11T07:20:00.038Z,7.97
2023-04-11T07:22:29.333Z,8.07
2023-04-11T07:24:58.485Z,8.02
2023-04-11T07:27:26.607Z,7.80
2023-04-11T07:29:54.304Z,7.70
2023-04-11T07:32:21.952Z,8.23
2023-04-11T07:34:49.604Z,7.60
2023-04-11T07:37:18.078Z,7.75
2023-04-11T07:39:45.670Z,7.80
2023-04-11T07:42:14.635Z,7.10
2023-04-11T07:44:42.293Z,7.50
2023-04-11T07:47:09.894Z,7.57
2023-04-11T07:49:37.567Z,7.55
2023-04-11T07:52:05.231Z,7.70
2023-04-11T07:54:32.903Z,7.53
2023-04-11T07:57:01.311Z,7.45
2023-04-11T07:59:30.362Z,7.50
2023-04-11T08:02:02.055Z,7.70
2023-04-11T08:04:32.457Z,7.55
2023-04-11T08:07:00.460Z,7.20
2023-04-11T08:09:28.518Z,7.47
2023-04-11T08:11:56.774Z,7.53
2023-04-11T08:14:24.619Z,7.20
2023-04-11T08:16:53.743Z,7.45
2023-04-11T08:19:22.129Z,9.23
2023-04-11T08:21:49.799Z,7.93
2023-04-11T08:24:17.486Z,7.22
2023-04-11T08:26:45.186Z,7.70
2023-04-11T08:29:12.923Z,7.90
2023-04-11T08:31:43.444Z,7.40
2023-04-11T08:34:13.014Z,7.22
2023-04-11T08:36:41.393Z,7.70
2023-04-11T08:39:09.096Z,7.28
2023-04-11T08:41:36.895Z,7.90
2023-04-11T08:44:04.685Z,7.80
2023-04-11T08:46:33.768Z,7.30
2023-04-11T08:49:01.886Z,7.63
2023-04-11T08:51:31.492Z,7.50
2023-04-11T08:54:02.187Z,7.10
2023-04-11T08:56:29.933Z,7.60
2023-04-11T08:58:57.638Z,7.30
2023-04-11T09:01:27.035Z,7.53
2023-04-11T09:03:54.959Z,7.65
2023-04-11T09:06:23.172Z,7.97
2023-04-11T09:08:52.250Z,7.22
2023-04-11T09:11:19.893Z,7.63
2023-04-11T09:13:48.601Z,7.63
2023-04-11T09:16:16.529Z,7.60
2023-04-11T09:18:46.340Z,7.82
2023-04-11T09:21:15.525Z,7.75
2023-04-11T09:23:43.256Z,7.55
2023-04-11T09:26:13.772Z,7.00
2023-04-11T09:28:42.910Z,7.32
2023-04-11T09:31:12.983Z,7.80
2023-04-11T09:33:41.315Z,7.68
2023-04-11T09:36:22.217Z,7.75
2023-04-11T09:38:49.884Z,8.00
2023-04-11T09:41:30.798Z,7.40
2023-04-11T09:43:58.719Z,7.20
2023-04-11T09:46:26.591Z,7.40
2023-04-11T09:48:56.856Z,7.55
2023-04-11T09:51:35.925Z,7.72
2023-04-11T09:54:05.485Z,7.70
2023-04-11T09:56:35.539Z,8.23
2023-04-11T09:59:04.368Z,7.38
2023-04-11T10:01:32.201Z,7.75
2023-04-11T10:04:00.905Z,7.63
2023-04-11T10:06:33.646Z,7.30
2023-04-11T10:09:08.023Z,8.13
2023-04-11T10:11:37.075Z,7.50
2023-04-11T10:14:04.810Z,7.63
2023-04-11T10:16:34.152Z,7.63
2023-04-11T10:19:23.760Z,7.93
2023-04-11T10:21:51.579Z,8.15
2023-04-11T10:24:21.172Z,7.32
2023-04-11T10:26:54.962Z,7.38
2023-04-11T10:29:52.485Z,8.55
2023-04-11T10:32:22.312Z,7.55
2023-04-11T10:35:32.926Z,7.50
2023-04-11T10:38:00.670Z,8.10
2023-04-11T10:40:28.359Z,7.50
2023-04-11T10:42:57.524Z,7.28
2023-04-11T10:45:27.072Z,7.50
2023-04-11T10:48:11.568Z,7.80
2023-04-11T10:50:43.872Z,7.70
2023-04-11T10:53:33.811Z,7.70
2023-04-11T10:56:02.100Z,7.63
2023-04-11T10:58:38.308Z,7.50
2023-04-11T11:01:32.360Z,7.53
2023-04-11T11:04:10.938Z,7.47
2023-04-11T11:06:47.541Z,7.88
2023-04-11T11:09:23.233Z,7.53
2023-04-11T11:14:34.829Z,7.95
2023-04-11T11:17:03.060Z,7.63
2023-04-11T11:19:31.125Z,7.63
2023-04-11T11:22:03.393Z,8.00
2023-04-11T11:24:31.598Z,8.23
2023-04-11T11:26:59.477Z,7.93
2023-04-11T11:29:35.962Z,7.75
2023-04-11T11:32:04.280Z,8.48
2023-04-11T11:34:32.944Z,7.90
2023-04-11T11:37:04.342Z,8.00
2023-04-11T11:39:33.887Z,8.00
2023-04-11T11:42:01.876Z,8.10
2023-04-11T11:44:30.786Z,7.70
2023-04-11T11:47:03.380Z,8.68
2023-04-11T11:49:45.151Z,8.10
2023-04-11T11:52:12.985Z,8.38
2023-04-11T11:54:47.357Z,8.70
2023-04-11T11:57:22.607Z,8.68
2023-04-11T11:59:54.231Z,7.90
2023-04-11T12:02:24.280Z,8.68
2023-04-11T12:04:52.130Z,8.77
2023-04-11T12:07:22.141Z,8.38
2023-04-11T12:09:49.929Z,9.00
2023-04-11T12:12:18.006Z,8.43
2023-04-11T12:14:53.646Z,9.43
2023-04-11T12:17:22.782Z,8.30
2023-04-11T12:19:50.464Z,8.50
2023-04-11T12:22:18.128Z,9.15
2023-04-11T12:24:45.778Z,9.13
2023-04-11T12:27:13.541Z,8.30
2023-04-11T12:29:41.175Z,8.70
2023-04-11T12:32:08.800Z,8.45
2023-04-11T12:34:37.790Z,9.52
2023-04-11T12:37:05.395Z,8.85
2023-04-11T12:39:33.051Z,8.52
2023-04-11T12:42:00.668Z,8.90
2023-04-11T12:44:28.301Z,8.90
2023-04-11T12:46:56.147Z,9.43
2023-04-11T12:49:23.881Z,9.50
2023-04-11T12:51:52.831Z,9.15
2023-04-11T12:54:20.557Z,8.80
2023-04-11T12:56:48.184Z,8.68
2023-04-11T12:59:16.668Z,8.55
2023-04-11T13:01:44.557Z,10.95
2023-04-11T13:04:12.411Z,9.90
2023-04-11T13:06:40.934Z,9.40
2023-04-11T13:09:13.238Z,8.68
2023-04-11T13:11:41.467Z,9.38
2023-04-11T13:14:09.202Z,9.85
2023-04-11T13:16:36.999Z,9.50
2023-04-11T13:19:04.676Z,8.75
2023-04-11T13:21:32.549Z,10.20
2023-04-11T13:24:00.348Z,8.68
2023-04-11T13:26:30.110Z,8.43
2023-04-11T13:28:58.039Z,8.23
2023-04-11T13:31:26.715Z,8.57
2023-04-11T13:33:54.547Z,7.72
2023-04-11T13:36:22.194Z,8.18
2023-04-11T13:38:51.309Z,8.18
2023-04-11T13:41:18.923Z,7.70
2023-04-11T13:43:48.173Z,8.35
2023-04-11T13:46:16.773Z,8.25
2023-04-11T13:48:44.566Z,7.93
2023-04-11T13:51:12.562Z,8.20
2023-04-11T13:53:40.399Z,8.43
2023-04-11T13:56:08.946Z,7.82
2023-04-11T13:58:38.107Z,8.43
2023-04-11T14:01:08.163Z,8.23
2023-04-11T14:03:36.013Z,7.85
2023-04-11T14:06:04.183Z,8.15
2023-04-11T14:08:31.950Z,8.80
2023-04-11T14:10:59.609Z,8.52
2023-04-11T14:13:27.406Z,9.10
2023-04-11T14:18:30.290Z,8.45
2023-04-11T14:21:00.696Z,9.05
2023-04-11T14:23:29.106Z,8.77
2023-04-11T14:25:56.766Z,8.60
2023-04-11T14:28:26.602Z,8.80
2023-04-11T14:30:54.751Z,8.35
2023-04-11T14:33:23.012Z,9.20
2023-04-11T14:35:52.586Z,8.60
2023-04-11T14:38:20.529Z,9.02
2023-04-11T14:40:48.166Z,8.80
2023-04-11T14:43:16.752Z,9.35
2023-04-11T14:45:44.435Z,9.73
2023-04-11T14:48:12.130Z,9.55
2023-04-11T14:50:39.749Z,9.15
2023-04-11T14:53:08.950Z,9.60
2023-04-11T14:55:39.519Z,8.75
2023-04-11T14:58:07.334Z,9.15
2023-04-11T15:00:35.272Z,8.95
2023-04-11T15:03:03.250Z,8.73
2023-04-11T15:05:31.099Z,8.70
2023-04-11T15:07:58.724Z,8.70
2023-04-11T15:10:27.720Z,8.48
2023-04-11T15:12:55.330Z,9.55
2023-04-11T15:15:23.792Z,8.88
2023-04-11T15:18:24.524Z,8.55
2023-04-11T15:20:52.496Z,8.57
2023-04-11T15:23:21.084Z,8.52
2023-04-11T15:25:53.464Z,8.15
2023-04-11T15:28:21.317Z,8.27
2023-04-11T15:30:50.931Z,9.05
2023-04-11T15:33:19.341Z,8.07
2023-04-11T15:35:47.202Z,8.60
2023-04-11T15:38:15.553Z,8.98
2023-04-11T15:40:43.187Z,8.60
2023-04-11T15:43:12.262Z,7.97
2023-04-11T15:45:40.454Z,8.32
2023-04-11T15:48:08.159Z,8.50
2023-04-11T15:50:35.963Z,7.57
2023-04-11T15:53:03.668Z,8.18
2023-04-11T15:55:31.700Z,7.68
2023-04-11T15:57:59.496Z,8.02
2023-04-11T16:00:28.735Z,8.30
2023-04-11T16:03:02.544Z,8.73
2023-04-11T16:05:31.342Z,8.55
2023-04-11T16:07:59.228Z,8.77
2023-04-11T16:10:26.963Z,8.35
2023-04-11T16:12:54.572Z,8.10
2023-04-11T16:15:22.313Z,8.13
2023-04-11T16:17:51.395Z,8.75
2023-04-11T16:20:21.193Z,8.32
2023-04-11T16:22:49.292Z,8.43
2023-04-11T16:25:20.705Z,8.88
2023-04-11T16:27:48.459Z,9.02
2023-04-11T16:30:16.903Z,8.75
2023-04-11T16:32:44.850Z,8.65
2023-04-11T16:35:13.959Z,8.88
2023-04-11T16:37:41.569Z,8.93
2023-04-11T16:40:11.104Z,8.93
2023-04-11T16:42:38.983Z,8.20
2023-04-11T16:45:08.818Z,8.57
2023-04-11T16:47:36.680Z,8.73
2023-04-11T16:50:05.772Z,8.00
2023-04-11T16:52:34.916Z,8.43
2023-04-11T16:55:03.490Z,8.27
2023-04-11T16:57:33.194Z,9.35
2023-04-11T17:00:06.330Z,8.57
2023-04-11T17:02:34.069Z,8.57
2023-04-11T17:05:01.813Z,9.07
2023-04-11T17:07:29.719Z,9.07
2023-04-11T17:09:58.764Z,8.65
2023-04-11T17:12:27.106Z,9.15
2023-04-11T17:14:55.936Z,8.68
2023-04-11T17:17:23.756Z,10.77
2023-04-11T17:19:51.527Z,11.40
2023-04-11T17:22:19.256Z,10.95
2023-04-11T17:24:47.106Z,10.30
2023-04-11T17:27:16.282Z,8.65
2023-04-11T17:29:43.965Z,9.02
2023-04-11T17:32:11.944Z,9.02
2023-04-11T17:34:39.617Z,8.63
2023-04-11T17:37:08.449Z,8.55
2023-04-11T17:39:37.201Z,8.55
2023-04-11T17:42:05.436Z,8.77
2023-04-11T17:44:34.475Z,10.20
2023-04-11T17:47:02.158Z,10.20
2023-04-11T17:49:29.824Z,8.60
2023-04-11T17:51:59.653Z,9.20
2023-04-11T17:54:27.587Z,8.40
2023-04-11T17:56:56.180Z,9.35
2023-04-11T17:59:24.137Z,8.75
2023-04-11T18:01:55.893Z,8.93
2023-04-11T18:04:23.928Z,9.00
2023-04-11T18:06:51.680Z,8.38
2023-04-11T18:09:20.299Z,8.40
2023-04-11T18:11:47.933Z,8.80
2023-04-11T18:14:15.656Z,8.82
2023-04-11T18:16:43.318Z,9.30
2023-04-11T18:19:12.620Z,9.23
2023-04-11T18:21:40.992Z,9.10
2023-04-11T18:24:09.005Z,8.98
2023-04-11T18:26:36.608Z,9.45
2023-04-11T18:29:04.356Z,9.82
2023-04-11T18:31:34.925Z,11.68
2023-04-11T18:34:03.556Z,10.55
2023-04-11T18:36:33.088Z,10.15
2023-04-11T18:39:00.765Z,10.38
2023-04-11T18:41:28.378Z,10.45
2023-04-11T18:43:56.046Z,10.88
2023-04-11T18:46:23.722Z,12.00
2023-04-11T18:48:51.474Z,9.25
2023-04-11T18:51:20.619Z,9.57
2023-04-11T18:53:49.657Z,10.18
2023-04-11T18:56:17.746Z,8.88
2023-04-11T18:58:46.891Z,8.75
2023-04-11T19:01:17.660Z,8.68
2023-04-11T19:03:46.545Z,8.60
2023-04-11T19:06:14.612Z,8.05
2023-04-11T19:08:42.278Z,8.07
2023-04-11T19:11:11.243Z,8.20
2023-04-11T19:13:38.885Z,8.63
2023-04-11T19:16:07.204Z,8.52
2023-04-11T19:18:34.910Z,7.60
2023-04-11T19:21:02.749Z,8.65
2023-04-11T19:23:30.390Z,9.00
2023-04-11T19:26:00.534Z,9.25
2023-04-11T19:28:29.580Z,9.15
2023-04-11T19:30:57.188Z,8.43
2023-04-11T19:33:26.087Z,8.82
2023-04-11T19:35:54.233Z,7.78
2023-04-11T19:38:22.307Z,8.13
2023-04-11T19:40:49.973Z,8.15
2023-04-11T19:43:17.772Z,8.85
2023-04-11T19:45:46.946Z,8.68
2023-04-11T19:48:16.128Z,8.88
2023-04-11T19:50:44.043Z,8.38
2023-04-11T19:53:11.700Z,9.10
2023-04-11T19:55:39.291Z,8.35
2023-04-11T19:58:06.945Z,8.00
2023-04-11T20:00:36.183Z,8.35
2023-04-11T20:03:07.533Z,8.23
2023-04-11T20:05:35.974Z,7.63
2023-04-11T20:08:03.607Z,8.20
2023-04-11T20:10:31.648Z,8.05
2023-04-11T20:12:59.234Z,8.65
2023-04-11T20:15:27.009Z,8.50
2023-04-11T20:17:54.646Z,8.52
2023-04-11T20:20:27.914Z,8.18
2023-04-11T20:22:55.693Z,8.07
2023-04-11T20:25:23.786Z,8.23
2023-04-11T20:27:51.418Z,9.38
2023-04-11T20:30:19.155Z,7.93
2023-04-11T20:32:46.975Z,8.57
2023-04-11T20:35:14.932Z,8.35
2023-04-11T20:37:44.408Z,8.45
2023-04-11T20:40:14.155Z,8.40
2023-04-11T20:42:43.002Z,7.93
2023-04-11T20:45:12.342Z,8.90
2023-04-11T20:47:40.307Z,8.13
2023-04-11T20:50:10.192Z,7.65
2023-04-11T20:52:38.741Z,8.57
2023-04-11T20:55:09.536Z,8.70
2023-04-11T20:57:37.375Z,8.25
2023-04-11T21:00:12.092Z,8.73
2023-04-11T21:02:41.519Z,8.25
2023-04-11T21:05:09.617Z,8.23
2023-04-11T21:07:37.816Z,7.53
2023-04-11T21:10:08.041Z,8.18
2023-04-11T21:12:35.920Z,8.40
2023-04-11T21:15:04.222Z,7.68
2023-04-11T21:17:33.275Z,8.00
2023-04-11T21:20:00.967Z,9.10
2023-04-11T21:22:28.638Z,8.45
2023-04-11T21:24:56.429Z,7.88
2023-04-11T21:27:25.510Z,7.55
2023-04-11T21:29:53.126Z,8.10
2023-04-11T21:32:20.756Z,8.68
2023-04-11T21:34:48.406Z,8.05
2023-04-11T21:37:16.073Z,7.88
2023-04-11T21:39:43.714Z,7.80
2023-04-11T21:42:11.376Z,8.38
2023-04-11T21:44:40.384Z,7.47
2023-04-11T21:47:08.204Z,7.70
2023-04-11T21:49:36.174Z,7.88
2023-04-11T21:52:03.792Z,7.20
2023-04-11T21:54:31.473Z,8.43
2023-04-11T21:56:59.094Z,8.07
2023-04-11T21:59:26.718Z,8.48
2023-04-11T22:01:55.810Z,8.77
2023-04-11T22:04:23.618Z,8.32
2023-04-11T22:06:51.358Z,7.82
2023-04-11T22:09:19.785Z,8.65
2023-04-11T22:11:47.917Z,7.82
2023-04-11T22:14:16.430Z,8.57
2023-04-11T22:16:48.821Z,8.25
2023-04-11T22:19:19.101Z,8.27
2023-04-11T22:21:48.690Z,7.90
2023-04-11T22:24:16.407Z,7.88
2023-04-11T22:26:48.726Z,7.55
2023-04-11T22:29:18.136Z,7.47
2023-04-11T22:31:47.678Z,8.30
2023-04-11T22:34:15.881Z,8.00
2023-04-11T22:36:45.180Z,7.97
2023-04-11T22:39:12.865Z,7.75
2023-04-11T22:41:40.480Z,8.27
2023-04-11T22:44:08.153Z,11.57
2023-04-11T22:46:38.953Z,7.70
2023-04-11T22:49:06.905Z,7.55
2023-04-11T22:51:34.529Z,7.72
2023-04-11T22:54:03.556Z,7.88
2023-04-11T22:56:31.317Z,7.78
2023-04-11T22:58:58.948Z,8.30
2023-04-11T23:01:26.619Z,7.97
2023-04-11T23:03:54.396Z,8.30
2023-04-11T23:06:22.381Z,7.90
2023-04-11T23:08:50.027Z,7.40
2023-04-11T23:11:20.311Z,9.65
2023-04-11T23:13:47.968Z,7.53
2023-04-11T23:16:15.699Z,7.32
2023-04-11T23:18:43.362Z,7.50
2023-04-11T23:21:13.133Z,7.50
2023-04-11T23:23:41.562Z,8.05
2023-04-11T23:26:09.259Z,7.65
2023-04-11T23:28:38.760Z,7.70
2023-04-11T23:31:06.705Z,7.97
2023-04-11T23:33:35.356Z,7.70
2023-04-11T23:36:03.035Z,7.82
2023-04-11T23:38:31.000Z,7.65
2023-04-11T23:40:59.208Z,8.02
2023-04-11T23:43:26.885Z,7.03
2023-04-11T23:45:56.059Z,7.00
2023-04-11T23:48:23.679Z,8.05
2023-04-11T23:50:51.377Z,7.50
2023-04-11T23:53:18.984Z,7.93
2023-04-11T23:55:46.811Z,8.02
2023-04-11T23:58:14.456Z,8.43
